Latest Weather Observations for Geelong Racecourse

IDV60901

Issued at 11:01 am EDT Saturday 7 March 2015 (issued every 10 minutes, with the page automatically refreshed every 10 minutes)

About weather observations | Map of Melbourne area stations | Latest observations for Melbourne area | Other Formats
Station Details ID: 087184 Name: GEELONG RACECOURSE Lat: -38.17 Lon: 144.38 Height: 12.9 m
Data from the previous 72 hours. | See also: Recent months at Geelong Racecourse
Date/Time
EDT
Tmp

°C
App
Tmp
°C
Dew
Point
°C
Rel
Hum
%
Delta-T

°C
Wind Press
QNH
hPa
Press
MSL
hPa
Rain
since
9 am
mm
Dir
 
Spd
km/h
Gust
km/h
Spd
kts
Gust
kts
07/11:00am 18.9 16.8 13.5 71 3.1 WNW 17 28 9 15 1012.2 1012.2 0.0
07/10:30am 17.7 15.7 13.8 78 2.2 WNW 17 28 9 15 1012.0 1012.0 0.0
07/10:00am 17.1 15.2 14.2 83 1.7 WNW 17 28 9 15 1012.1 1012.1 0.0
07/09:30am 16.0 15.0 14.7 92 0.7 WNW 13 20 7 11 1012.0 1012.0 0.0
07/09:00am 15.9 14.4 14.3 90 0.9 WNW 15 24 8 13 1011.8 1011.8 0.2
07/08:30am 15.6 13.4 14.3 92 0.7 WNW 19 30 10 16 1011.5 1011.5 0.2
07/08:00am 15.1 14.2 13.8 92 0.7 WNW 11 20 6 11 1011.2 1011.2 0.2
07/07:30am 14.8 13.8 13.5 92 0.7 WNW 11 19 6 10 1011.2 1011.2 0.2
07/07:00am 14.5 13.5 13.4 93 0.6 WNW 11 20 6 11 1010.9 1010.9 0.2
07/06:30am 14.7 13.4 13.6 93 0.6 WNW 13 17 7 9 1010.8 1010.8 0.2
07/06:00am 14.4 12.6 13.3 93 0.6 WNW 15 20 8 11 1010.7 1010.7 0.2
07/05:30am 14.6 13.2 13.5 93 0.6 NW 13 20 7 11 1010.7 1010.7 0.2
07/05:00am 14.6 13.2 13.5 93 0.6 WNW 13 17 7 9 1010.6 1010.6 0.2
07/04:30am 14.5 12.7 13.4 93 0.6 WNW 15 28 8 15 1010.7 1010.7 0.2
07/04:00am 14.9 13.2 13.6 92 0.7 WNW 15 22 8 12 1011.0 1011.0 0.2
07/03:30am 15.4 15.3 13.8 90 0.9 WNW 7 11 4 6 1011.2 1011.2 0.2
07/03:00am 15.4 15.4 14.1 92 0.7 WNW 7 13 4 7 1011.2 1011.2 0.2
07/02:30am 15.2 15.1 13.9 92 0.7 WNW 7 11 4 6 1011.6 1011.6 0.2
07/02:00am 14.9 14.4 13.8 93 0.6 NW 9 13 5 7 1011.8 1011.8 0.2
07/01:30am 14.6 13.9 13.3 92 0.7 WNW 9 15 5 8 1012.1 1012.1 0.2
07/01:00am 14.8 14.8 13.5 92 0.7 WNW 6 9 3 5 1012.2 1012.2 0.2
07/12:30am 14.7 14.4 13.4 92 0.7 WNW 7 11 4 6 1012.1 1012.1 0.2
07/12:00am 14.7 14.6 13.4 92 0.7 W 6 9 3 5 1012.2 1012.2 0.2
 
Date/Time
EDT
Tmp

°C
App
Tmp
°C
Dew
Point
°C
Rel
Hum
%
Delta-T

°C
Wind Press
QNH
hPa
Press
MSL
hPa
Rain
since
9 am
mm
Dir
 
Spd
km/h
Gust
km/h
Spd
kts
Gust
kts
06/11:30pm 15.0 14.1 13.7 92 0.7 W 11 19 6 10 1012.3 1012.3 0.2
06/11:00pm 15.3 14.4 13.8 91 0.8 W 11 19 6 10 1012.4 1012.4 0.2
06/10:30pm 15.7 15.7 13.5 87 1.2 W 6 9 3 5 1012.5 1012.5 0.2
06/10:00pm 16.5 15.2 13.6 83 1.6 WSW 13 20 7 11 1012.6 1012.6 0.2
06/09:30pm 16.6 16.6 14.2 86 1.4 W 7 9 4 5 1012.5 1012.5 0.2
06/09:00pm 15.8 16.1 14.5 92 0.7 WSW 6 9 3 5 1012.3 1012.3 0.2
06/08:30pm 15.7 16.0 14.4 92 0.7 SSW 6 7 3 4 1012.0 1012.0 0.2
06/08:00pm 16.2 16.1 14.9 92 0.7 SSW 9 11 5 6 1011.7 1011.7 0.2
06/07:30pm 16.9 16.6 15.4 91 0.9 SSW 11 17 6 9 1011.4 1011.4 0.2
06/07:00pm 17.1 16.4 15.4 90 1.0 SSW 13 19 7 10 1011.4 1011.4 0.2
06/06:30pm 17.7 16.0 14.8 83 1.7 SSW 17 20 9 11 1011.3 1011.3 0.2
06/06:00pm 18.4 16.2 14.3 77 2.4 S 19 24 10 13 1010.9 1010.9 0.2
06/05:30pm 18.5 16.0 14.0 75 2.6 SSW 20 26 11 14 1010.6 1010.6 0.2
06/05:00pm 18.9 16.5 13.7 72 3.0 SSW 19 24 10 13 1010.5 1010.5 0.2
06/04:30pm 19.2 16.7 13.6 70 3.2 SSW 19 26 10 14 1010.6 1010.6 0.0
06/04:00pm 19.5 17.2 14.1 71 3.1 SSW 19 26 10 14 1010.6 1010.6 0.0
06/03:30pm 18.4 16.7 16.2 87 1.3 SSW 20 30 11 16 1010.8 1010.8 0.0
06/03:00pm 20.4 18.5 15.2 72 3.1 SSW 19 28 10 15 1010.9 1010.9 0.0
06/02:30pm 18.9 17.8 15.2 79 2.2 SSW 15 22 8 12 1010.8 1010.8 0.0
06/02:00pm 18.8 18.9 17.5 92 0.8 SSW 13 20 7 11 1010.8 1010.8 0.0
06/01:30pm 19.9 17.9 14.9 73 2.9 S 19 26 10 14 1010.8 1010.8 0.0
06/01:00pm 21.3 18.5 14.2 64 4.1 WSW 22 35 12 19 1010.9 1010.9 0.0
06/12:30pm 20.6 16.6 14.0 66 3.8 W 28 37 15 20 1011.0 1011.0 0.0
06/12:00pm 20.8 17.3 14.5 67 3.7 W 26 39 14 21 1011.0 1011.0 0.0
06/11:30am 19.1 16.5 13.7 71 3.1 W 20 32 11 17 1011.1 1011.1 0.0
06/11:00am 18.1 15.0 14.4 79 2.1 W 24 35 13 19 1011.1 1011.1 0.0
06/10:30am 17.2 15.2 15.0 87 1.3 W 19 32 10 17 1011.0 1011.0 0.0
06/10:00am 16.0 13.0 14.7 92 0.7 W 24 33 13 18 1010.8 1010.8 0.0
06/09:30am 15.6 13.2 14.3 92 0.7 W 20 33 11 18 1010.8 1010.8 0.0
06/09:00am 15.2 12.3 13.9 92 0.7 W 22 32 12 17 1010.5 1010.5 0.0
06/08:30am 14.5 11.3 13.2 92 0.7 WNW 22 37 12 20 1010.2 1010.2 0.0
06/08:00am 14.1 10.7 12.5 90 0.9 W 22 37 12 20 1010.1 1010.1 0.0
06/07:30am 14.2 9.8 11.7 85 1.3 WNW 26 39 14 21 1009.6 1009.6 0.0
06/07:00am 14.3 9.6 10.7 79 1.9 W 26 39 14 21 1009.3 1009.3 0.0
06/06:30am 14.2 10.4 9.8 75 2.3 W 20 39 11 21 1009.2 1009.2 0.0
06/06:00am 14.0 10.0 9.0 72 2.5 WNW 20 37 11 20 1009.4 1009.4 0.0
06/05:30am 14.1 9.0 9.1 72 2.5 WNW 26 44 14 24 1009.6 1009.6 0.0
06/05:00am 13.9 9.1 8.7 71 2.6 WNW 24 37 13 20 1009.9 1009.9 0.0
06/04:30am 13.6 8.8 8.7 72 2.5 WNW 24 39 13 21 1010.2 1010.2 0.0
06/04:00am 13.6 8.8 8.7 72 2.5 WNW 24 37 13 20 1010.4 1010.4 0.0
06/03:30am 13.8 9.3 8.6 71 2.6 WNW 22 33 12 18 1011.0 1011.0 0.0
06/03:00am 13.8 9.2 8.2 69 2.8 WNW 22 37 12 20 1011.6 1011.6 0.0
06/02:30am 13.9 9.6 7.9 67 3.0 WNW 20 37 11 20 1012.1 1012.1 0.0
06/02:00am 13.7 9.0 7.7 67 3.0 WNW 22 37 12 20 1012.2 1012.2 0.0
06/01:30am 13.4 8.9 7.0 65 3.1 WNW 20 35 11 19 1012.5 1012.5 0.0
06/01:00am 13.6 9.0 6.7 63 3.3 WNW 20 37 11 20 1012.8 1012.8 0.0
06/12:30am 13.7 9.3 6.6 62 3.4 WNW 19 33 10 18 1013.1 1013.1 0.0
06/12:00am 13.7 9.2 6.1 60 3.6 WNW 19 32 10 17 1013.3 1013.3 0.0
 
Date/Time
EDT
Tmp

°C
App
Tmp
°C
Dew
Point
°C
Rel
Hum
%
Delta-T

°C
Wind Press
QNH
hPa
Press
MSL
hPa
Rain
since
9 am
mm
Dir
 
Spd
km/h
Gust
km/h
Spd
kts
Gust
kts
05/11:30pm 14.0 8.9 6.1 59 3.8 WNW 22 37 12 20 1013.7 1013.7 0.0
05/11:00pm 14.2 9.7 6.1 58 3.9 WNW 19 28 10 15 1014.1 1014.1 0.0
05/10:30pm 14.2 10.1 6.3 59 3.8 WNW 17 32 9 17 1014.3 1014.3 0.0
05/10:00pm 14.4 9.8 6.5 59 3.8 W 20 33 11 18 1014.9 1014.9 0.0
05/09:30pm 14.5 9.5 6.3 58 3.9 W 22 35 12 19 1014.9 1014.9 0.0
05/09:00pm 14.6 11.3 6.4 58 4.0 W 13 24 7 13 1015.0 1015.0 0.0
05/08:30pm 14.9 10.4 6.2 56 4.2 W 19 32 10 17 1014.8 1014.8 0.0
05/08:00pm 15.5 10.9 5.7 52 4.7 WSW 19 33 10 18 1015.2 1015.2 0.0
05/07:30pm 16.2 10.8 4.3 45 5.6 W 22 30 12 16 1015.3 1015.3 0.0
05/07:00pm 16.6 10.9 4.9 46 5.5 WSW 24 35 13 19 1015.4 1015.4 0.0
05/06:30pm 16.9 11.1 4.6 44 5.8 WSW 24 37 13 20 1015.6 1015.6 0.0
05/06:00pm 18.2 11.4 3.3 37 6.9 W 28 41 15 22 1015.4 1015.4 0.0
05/05:30pm 18.3 12.1 4.5 40 6.6 WSW 26 37 14 20 1015.9 1015.9 0.0
05/05:00pm 18.7 12.6 2.9 35 7.3 WSW 24 35 13 19 1015.9 1015.9 0.0
05/04:30pm 19.6 13.4 4.1 36 7.4 WSW 26 46 14 25 1015.8 1015.8 0.0
05/04:26pm 19.0 12.3 3.6 36 7.3 WSW 28 46 15 25 1016.0 1016.0 0.0
05/04:00pm 19.4 13.4 3.2 34 7.6 W 24 39 13 21 1016.0 1016.0 0.0
05/03:30pm 18.9 14.3 6.4 44 6.2 SSW 20 43 11 23 1016.4 1016.4 0.0
05/03:00pm 19.0 14.4 5.5 41 6.6 SW 19 28 10 15 1016.7 1016.7 0.0
05/02:30pm 18.4 14.7 4.6 40 6.6 SW 13 24 7 13 1016.7 1016.7 0.0
05/02:00pm 18.3 13.4 5.2 42 6.3 SW 20 26 11 14 1017.0 1017.0 0.0
05/01:30pm 17.9 14.6 4.5 41 6.4 WSW 11 26 6 14 1017.3 1017.3 0.0
05/01:00pm 18.3 14.3 4.8 41 6.5 WSW 15 26 8 14 1017.5 1017.5 0.0
05/12:30pm 16.9 12.1 5.5 47 5.5 SW 20 32 11 17 1017.9 1017.9 0.0
05/12:00pm 17.4 11.8 5.4 45 5.8 SW 24 39 13 21 1017.9 1017.9 0.0
05/11:30am 16.7 10.5 4.4 44 5.8 SW 26 39 14 21 1017.7 1017.7 0.0
05/11:00am 16.1 8.9 4.8 47 5.3 SW 32 43 17 23 1017.8 1017.8 0.0
05/10:30am 15.4 8.0 5.0 50 4.9 SW 33 54 18 29 1017.7 1017.7 0.0
05/10:22am 15.9 9.3 4.3 46 5.4 SW 28 54 15 29 1017.7 1017.7 0.0
05/10:00am 15.4 9.1 5.6 52 4.7 SW 28 41 15 22 1017.5 1017.5 0.0
05/09:30am 14.4 7.7 5.5 55 4.2 WSW 30 44 16 24 1017.2 1017.2 0.0
05/09:00am 13.5 8.6 5.2 57 3.9 WSW 20 32 11 17 1016.6 1016.6 0.0
05/08:30am 12.1 7.2 5.3 63 3.1 WSW 20 37 11 20 1016.3 1016.3 0.0
05/08:00am 11.4 7.1 5.1 65 2.9 WSW 17 28 9 15 1015.7 1015.7 0.0
05/07:30am 11.2 6.4 4.9 65 2.9 WSW 19 26 10 14 1015.4 1015.4 0.0
05/07:00am 10.9 6.8 4.6 65 2.8 W 15 24 8 13 1014.8 1014.8 0.0
05/06:30am 10.9 6.8 4.6 65 2.8 W 15 24 8 13 1014.5 1014.5 0.0
05/06:00am 11.3 6.6 5.0 65 2.9 W 19 28 10 15 1014.1 1014.1 0.0
05/05:30am 11.8 6.8 4.8 62 3.2 WSW 20 30 11 16 1013.7 1013.7 0.0
05/05:00am 11.8 7.0 5.4 65 3.0 WSW 20 32 11 17 1013.3 1013.3 0.0
05/04:30am 12.1 6.7 6.4 68 2.7 WSW 24 35 13 19 1012.5 1012.5 0.0
05/04:00am 12.8 6.7 6.4 65 3.0 WSW 28 37 15 20 1012.0 1012.0 0.0
05/03:31am 13.7 6.0 7.2 65 3.2 WSW 37 57 20 31 1011.6 1011.6 0.0
05/03:30am 13.8 5.8 7.6 66 3.0 WSW 39 57 21 31 1011.6 1011.6 0.0
05/03:00am 14.3 8.3 10.1 76 2.2 WSW 32 57 17 31 1010.7 1010.7 0.0
05/02:51am 14.4 8.3 10.4 77 2.1 WSW 33 57 18 31 1010.5 1010.5 0.0
05/02:30am 14.3 9.8 11.5 83 1.5 WSW 26 41 14 22 1010.3 1010.3 0.0
05/02:00am 14.4 9.3 13.0 91 0.8 W 32 48 17 26 1010.0 1010.0 0.0
05/01:30am 15.4 12.2 13.1 86 1.3 WNW 22 41 12 22 1009.5 1009.5 0.0
05/01:13am 16.2 10.4 11.6 74 2.5 WNW 33 65 18 35 1009.2 1009.2 0.0
05/01:00am 16.6 11.4 11.7 73 2.7 WNW 30 46 16 25 1009.1 1009.1 0.0
05/12:54am 16.7 11.9 11.6 72 2.8 WNW 28 48 15 26 1009.2 1009.2 0.0
05/12:30am 16.8 12.3 11.5 71 2.9 WNW 26 41 14 22 1009.3 1009.3 0.0
05/12:00am 16.7 12.6 11.6 72 2.8 WNW 24 33 13 18 1009.2 1009.2 0.0
 
Date/Time
EDT
Tmp

°C
App
Tmp
°C
Dew
Point
°C
Rel
Hum
%
Delta-T

°C
Wind Press
QNH
hPa
Press
MSL
hPa
Rain
since
9 am
mm
Dir
 
Spd
km/h
Gust
km/h
Spd
kts
Gust
kts
04/11:30pm 17.4 12.6 11.7 69 3.1 W 28 44 15 24 1009.5 1009.5 0.0
04/11:25pm 17.7 12.5 11.7 68 3.3 W 30 44 16 24 1009.4 1009.4 0.0
04/11:00pm 18.1 15.6 11.2 64 3.8 WNW 15 26 8 14 1009.1 1009.1 0.0
04/10:30pm 17.7 15.6 11.3 66 3.5 W 13 17 7 9 1009.6 1009.6 0.0
04/10:00pm 18.5 14.9 10.6 60 4.3 WSW 20 30 11 16 1009.9 1009.9 0.0
04/09:30pm 19.3 17.1 10.8 58 4.6 WNW 13 24 7 13 1009.7 1009.7 0.0
04/09:00pm 19.2 17.4 11.0 59 4.5 W 11 17 6 9 1009.7 1009.7 0.0
04/08:30pm 19.5 16.6 11.0 58 4.6 WSW 17 20 9 11 1009.4 1009.4 0.0
04/08:00pm 20.3 18.4 10.4 53 5.4 W 11 17 6 9 1009.1 1009.1 0.0
04/07:30pm 21.0 17.9 10.2 50 5.9 WNW 17 24 9 13 1009.2 1009.2 0.0
04/07:00pm 21.7 18.4 9.6 46 6.5 WNW 17 28 9 15 1009.5 1009.5 0.0
04/06:30pm 21.9 18.0 9.4 45 6.7 W 20 33 11 18 1009.7 1009.7 0.0
04/06:00pm 22.9 17.8 9.3 42 7.3 WNW 26 43 14 23 1009.9 1009.9 0.0
04/05:30pm 23.0 18.1 9.8 43 7.2 W 26 39 14 21 1009.9 1009.9 0.0
04/05:00pm 23.1 18.2 9.8 43 7.2 W 26 41 14 22 1010.3 1010.3 0.0
04/04:30pm 22.9 18.3 9.7 43 7.2 W 24 35 13 19 1010.7 1010.7 0.0
04/04:00pm 22.2 18.3 9.4 44 6.9 WNW 20 33 11 18 1011.0 1011.0 0.0
04/03:30pm 23.2 19.8 10.6 45 7.0 W 19 30 10 16 1011.4 1011.4 0.0
04/03:00pm 21.9 18.3 10.4 48 6.3 WNW 20 32 11 17 1011.9 1011.9 0.0
04/02:30pm 22.3 17.9 10.5 47 6.5 W 24 35 13 19 1012.3 1012.3 0.0
04/02:00pm 21.9 17.8 10.1 47 6.4 WNW 22 35 12 19 1012.5 1012.5 0.0
04/01:30pm 20.8 17.6 10.0 50 5.8 W 17 28 9 15 1013.0 1013.0 0.0
04/01:00pm 21.1 18.1 10.6 51 5.7 WNW 17 30 9 16 1013.5 1013.5 0.0
04/12:30pm 19.4 16.2 9.9 54 5.1 WNW 17 28 9 15 1013.9 1013.9 0.0
04/12:00pm 19.3 16.5 10.0 55 5.0 NW 15 28 8 15 1014.5 1014.5 0.0
04/11:30am 18.2 16.2 10.3 60 4.2 WNW 11 19 6 10 1015.0 1015.0 0.0

Latest Capital City Observations: Canberra | Sydney | Melbourne | Brisbane | Adelaide | Perth | Hobart | Darwin

Other Formats:

Comma delimited format used in spreadsheet applications
http://www.bom.gov.au/fwo/IDV60901/IDV60901.94857.axf

JavaScript Object Notation format (JSON) in row-major order
http://www.bom.gov.au/fwo/IDV60901/IDV60901.94857.json